MET2387 - Kansas City to Rochester

Bombardier Dash-8-Q200
838AH
1 hr 15 mins
294 nm
Scheduled - Daily

Bid/PiRep Status

Bid was submitted on November 22nd, 2016 16:26 UTC.
PiRep # 74153: Approved by Dave Nichols on November 28th, 2016 10:07 UTC

Departure

Departing from
Kansas City (MCI)
Departure gate
Scheduled Departure
GMT 1900
Local 1400
METAR KMCI 232353Z 02004KT 10SM CLR 24/13 A3006 RMK AO2 SLP174 T02440133 10261 20239 56010
TAF KMCI 232329Z 2400/2424 16005KT P6SM SKC FM241800 15011KT P6SM SKC

Arrival

Arriving at
Rochester (RST)
Arrival gate
A4
Scheduled Arrival
GMT 2015
Local 1515
METAR KRST 240054Z 33004KT 10SM CLR 18/12 A3005 RMK AO2 SLP174 T01830122
TAF KRST 232325Z 2400/2424 35005KT P6SM FEW050 FM240700 13004KT P6SM VCSH SCT050 BKN080 FM241900 12008KT P6SM SCT080

Route Map

Planning Resources

ROYAL3 TONCE DSM J25 MCW YESUR [D147M] EGACE [D110M] D095M
ROYAL3 TONCE DSM J25 MCW RST
ROYAL 5 STJ DSM J25 MCW RST KRST
MCI STJ DSM J25 MCW RST
BACNN DSM JORDY MCW
Route:
OFP Layout:
Units:
Detailed Navlog:
ETOPS Planning:
Plan Stepclimbs:
Runway Analysis:
Include NOTAMS:
FIR NOTAMS:
Flight Maps:

Return Flights

MET2386
Bombardier Dash-8-Q200
1535 GMT
MET2388
Bombardier Dash-8-Q200
2035 GMT

Popularity

Hub Current Bids PiReps this month Total PiReps
KMCI 0 0 3
KLAX 0 0 0
KBOS 0 0 0